Time;durP1;ratioP1;P1;durP2;ratioP2;P2;SDS_P1;SDS_P2;PMS_P1;PMS_P2;Temp;Humidity;BMP_temperature;BMP_pressure;BME280_temperature;BME280_humidity;BME280_pressure;Samples;Min_cycle;Max_cycle;Signal;HPM_P1;HPM_P2
2022/06/30 00:02:10;;;;;;;0.00;0.00;;;16.50;65.80;;;;;;5048460;28;20220;-78
2022/06/30 00:04:36;;;;;;;0.00;0.00;;;16.50;65.70;;;;;;5048336;28;20060;-79
2022/06/30 00:07:02;;;;;;;0.00;0.00;;;16.50;65.80;;;;;;5047134;28;20091;-78
2022/06/30 00:09:28;;;;;;;;;;;16.50;65.80;;;;;;5048644;28;20033;-77
2022/06/30 00:11:53;;;;;;;0.00;0.00;;;16.50;65.80;;;;;;5047039;28;20008;-77
2022/06/30 00:14:19;;;;;;;0.00;0.00;;;16.50;65.80;;;;;;5047335;28;20028;-77
2022/06/30 00:16:45;;;;;;;0.00;0.00;;;16.50;65.80;;;;;;5046944;28;20497;-77
2022/06/30 00:19:11;;;;;;;0.00;0.00;;;16.50;65.80;;;;;;5046823;28;20438;-78
2022/06/30 00:21:37;;;;;;;0.00;0.00;;;16.50;65.80;;;;;;5046692;28;20395;-77
2022/06/30 00:24:03;;;;;;;0.00;0.00;;;16.50;65.80;;;;;;5046917;28;20021;-77
2022/06/30 00:26:29;;;;;;;0.00;0.00;;;16.50;65.80;;;;;;5046661;28;20025;-76
2022/06/30 00:28:55;;;;;;;0.00;0.00;;;16.50;65.80;;;;;;5046699;28;20028;-77
2022/06/30 00:31:20;;;;;;;0.00;0.00;;;16.40;65.80;;;;;;5047897;28;20424;-77
2022/06/30 00:33:46;;;;;;;0.00;0.00;;;16.40;65.80;;;;;;5046733;28;20459;-78
2022/06/30 00:36:12;;;;;;;0.00;0.00;;;16.40;65.80;;;;;;5046414;28;20049;-77
2022/06/30 00:38:38;;;;;;;0.00;0.00;;;16.40;65.90;;;;;;5046632;28;20056;-77
2022/06/30 00:41:04;;;;;;;;;;;16.30;65.80;;;;;;5046950;28;20033;-78
2022/06/30 00:43:30;;;;;;;0.00;0.00;;;16.30;65.90;;;;;;5046562;28;19908;-77
2022/06/30 00:45:56;;;;;;;0.00;0.00;;;16.30;65.90;;;;;;5046380;28;20280;-78
2022/06/30 00:48:22;;;;;;;0.00;0.00;;;16.30;65.90;;;;;;5047578;28;20032;-78
2022/06/30 00:50:47;;;;;;;0.00;0.00;;;16.30;65.90;;;;;;5046046;28;20112;-76
2022/06/30 00:53:14;;;;;;;0.00;0.00;;;16.30;66.00;;;;;;5046254;28;20029;-76
2022/06/30 00:55:43;;;;;;;0.00;0.00;;;16.30;65.90;;;;;;5047600;28;20031;-76
2022/06/30 00:58:09;;;;;;;0.00;0.00;;;16.30;65.90;;;;;;5046025;28;20044;-77
2022/06/30 01:00:47;;;;;;;0.00;0.00;;;16.30;65.90;;;;;;5047455;28;20040;-78
2022/06/30 01:03:13;;;;;;;0.00;0.00;;;16.40;65.90;;;;;;5047418;28;20046;-76
2022/06/30 01:05:40;;;;;;;0.00;0.00;;;16.40;65.90;;;;;;5013201;28;20029;-77
2022/06/30 01:08:06;;;;;;;0.00;0.00;;;16.40;65.90;;;;;;5046053;28;20036;-78
2022/06/30 01:13:17;;;;;;;0.00;0.00;;;16.40;65.90;;;;;;5051753;28;20047;-77
2022/06/30 01:15:43;;;;;;;0.00;0.00;;;16.40;65.90;;;;;;5050142;28;20033;-77
2022/06/30 01:18:08;;;;;;;0.00;0.00;;;16.40;65.90;;;;;;5051389;28;20147;-76
2022/06/30 01:20:35;;;;;;;0.00;0.00;;;16.30;66.40;;;;;;5051427;28;20121;-78
2022/06/30 01:23:02;;;;;;;0.00;0.00;;;16.30;65.90;;;;;;5033342;28;20064;-76
2022/06/30 01:25:28;;;;;;;0.00;0.00;;;16.30;65.90;;;;;;5033531;28;20082;-76
2022/06/30 01:27:55;;;;;;;0.00;0.00;;;16.30;66.00;;;;;;5049939;28;20111;-78
2022/06/30 01:30:21;;;;;;;;;;;16.30;66.00;;;;;;5051481;28;20132;-77
2022/06/30 01:32:47;;;;;;;0.00;0.00;;;16.40;66.10;;;;;;5049776;28;19905;-77
2022/06/30 01:35:12;;;;;;;0.00;0.00;;;16.40;66.00;;;;;;5050403;28;20045;-76
2022/06/30 01:37:47;;;;;;;0.00;0.00;;;16.40;66.00;;;;;;5051577;28;20025;-77
2022/06/30 01:40:13;;;;;;;0.00;0.00;;;16.40;66.00;;;;;;5050450;28;20040;-77
2022/06/30 01:42:39;;;;;;;0.00;0.00;;;16.40;66.00;;;;;;5033539;28;20399;-77
2022/06/30 01:45:05;;;;;;;0.00;0.00;;;16.40;66.00;;;;;;5051187;28;20041;-78
2022/06/30 01:47:31;;;;;;;;;;;16.40;66.00;;;;;;5033688;28;20041;-78
2022/06/30 01:49:56;;;;;;;0.00;0.00;;;16.40;65.90;;;;;;5049822;28;20366;-77
2022/06/30 01:52:22;;;;;;;0.00;0.00;;;16.40;65.90;;;;;;5033383;28;20375;-78
2022/06/30 01:54:48;;;;;;;0.00;0.00;;;16.40;66.00;;;;;;5051048;28;20080;-78
2022/06/30 01:57:13;;;;;;;0.00;0.00;;;16.30;66.00;;;;;;5032950;28;20028;-76
2022/06/30 01:59:39;;;;;;;0.00;0.00;;;16.30;66.00;;;;;;5033026;28;20033;-77
2022/06/30 02:02:05;;;;;;;0.00;0.00;;;16.30;66.00;;;;;;5049594;28;20032;-78
2022/06/30 02:04:51;;;;;;;0.00;0.00;;;16.30;66.00;;;;;;5049537;28;20067;-77
2022/06/30 02:07:21;;;;;;;0.00;0.00;;;16.30;66.00;;;;;;5035774;28;20119;-77
2022/06/30 02:09:50;;;;;;;0.00;0.00;;;16.30;66.10;;;;;;5049244;28;20501;-77
2022/06/30 02:15:07;;;;;;;0.00;0.00;;;16.30;66.10;;;;;;5050717;28;20049;-77
2022/06/30 02:17:33;;;;;;;0.00;0.00;;;16.30;66.00;;;;;;5050521;28;20025;-77
2022/06/30 02:20:00;;;;;;;0.00;0.00;;;16.30;66.00;;;;;;5050403;28;20138;-77
2022/06/30 02:22:26;;;;;;;0.00;0.00;;;16.30;66.00;;;;;;5049148;28;20029;-78
2022/06/30 02:24:52;;;;;;;0.00;0.00;;;16.30;66.00;;;;;;5049021;28;20025;-76
2022/06/30 02:27:20;;;;;;;0.00;0.00;;;16.20;66.00;;;;;;5049077;28;20039;-78
2022/06/30 02:29:46;;;;;;;0.00;0.00;;;16.20;66.10;;;;;;5050263;28;20017;-78
2022/06/30 02:32:12;;;;;;;0.00;0.00;;;16.20;66.10;;;;;;5015817;28;20040;-77
2022/06/30 02:34:38;;;;;;;0.00;0.00;;;16.20;66.10;;;;;;5049971;28;20060;-77
2022/06/30 02:37:04;;;;;;;0.00;0.00;;;16.20;66.20;;;;;;5050097;28;20029;-75
2022/06/30 02:39:29;;;;;;;0.00;0.00;;;16.20;66.20;;;;;;5031956;28;20082;-77
2022/06/30 02:41:55;;;;;;;0.00;0.00;;;16.20;66.30;;;;;;5032044;28;20437;-78
2022/06/30 02:44:21;;;;;;;0.00;0.00;;;16.20;66.30;;;;;;5048638;28;20033;-76
2022/06/30 02:46:50;;;;;;;0.00;0.00;;;16.20;66.20;;;;;;5048595;28;20033;-76
2022/06/30 02:49:19;;;;;;;0.00;0.00;;;16.10;66.10;;;;;;5049696;28;20025;-75
2022/06/30 02:51:45;;;;;;;0.00;0.00;;;16.10;66.20;;;;;;5032511;28;20033;-77
2022/06/30 02:54:10;;;;;;;;;;;16.20;66.30;;;;;;5050039;28;20025;-78
2022/06/30 02:56:36;;;;;;;0.00;0.00;;;16.10;66.20;;;;;;5048514;28;19987;-77
2022/06/30 02:59:02;;;;;;;0.00;0.00;;;16.10;66.20;;;;;;5048372;28;20032;-76
2022/06/30 03:01:28;;;;;;;0.00;0.00;;;16.10;66.20;;;;;;5049751;28;20033;-77
2022/06/30 03:03:53;;;;;;;0.00;0.00;;;16.00;66.20;;;;;;5049577;28;20502;-77
2022/06/30 03:06:19;;;;;;;0.00;0.00;;;16.00;66.20;;;;;;5031812;28;20411;-77
2022/06/30 03:08:45;;;;;;;0.00;0.00;;;16.00;66.20;;;;;;5049340;28;20361;-78
2022/06/30 03:11:16;;;;;;;0.00;0.00;;;16.00;66.20;;;;;;5032086;28;20032;-77
2022/06/30 03:13:45;;;;;;;0.00;0.00;;;16.00;66.30;;;;;;5048458;28;20369;-78
2022/06/30 03:16:11;;;;;;;0.00;0.00;;;15.90;66.20;;;;;;5048590;28;20118;-78
2022/06/30 03:18:38;;;;;;;0.00;0.00;;;16.00;66.30;;;;;;5031568;28;20029;-78
2022/06/30 03:21:04;;;;;;;0.00;0.00;;;16.00;66.30;;;;;;5049687;28;20045;-79
2022/06/30 03:23:29;;;;;;;0.00;0.00;;;16.00;66.30;;;;;;5048521;28;20060;-78
2022/06/30 03:25:55;;;;;;;0.00;0.00;;;15.90;66.40;;;;;;5048087;28;20558;-77
2022/06/30 03:28:21;;;;;;;0.00;0.00;;;15.90;66.50;;;;;;5049289;28;20115;-77
2022/06/30 03:30:47;;;;;;;0.00;0.00;;;15.90;66.50;;;;;;5047901;28;20029;-78
2022/06/30 03:33:14;;;;;;;0.00;0.00;;;15.90;66.50;;;;;;5047610;28;20029;-78
2022/06/30 03:35:40;;;;;;;0.00;0.00;;;15.90;66.50;;;;;;5047696;28;20104;-77
2022/06/30 03:38:06;;;;;;;0.00;0.00;;;15.90;66.50;;;;;;5048913;28;20029;-77
2022/06/30 03:40:32;;;;;;;0.00;0.00;;;15.80;66.60;;;;;;5048992;28;20448;-77
2022/06/30 03:42:59;;;;;;;0.00;0.00;;;15.70;66.60;;;;;;5049069;28;20096;-80
2022/06/30 03:45:25;;;;;;;0.00;0.00;;;15.70;66.80;;;;;;5047673;28;20037;-77
2022/06/30 03:47:51;;;;;;;;;;;15.70;66.80;;;;;;5047774;28;20542;-76
2022/06/30 03:50:16;;;;;;;0.00;0.00;;;15.60;66.70;;;;;;5048543;28;19995;-77
2022/06/30 03:52:42;;;;;;;0.00;0.00;;;15.60;66.80;;;;;;5047205;28;20036;-77
2022/06/30 03:55:08;;;;;;;0.00;0.00;;;15.60;66.90;;;;;;5048688;28;20036;-78
2022/06/30 03:57:35;;;;;;;0.00;0.00;;;15.50;66.90;;;;;;5030822;28;20037;-79
2022/06/30 04:00:01;;;;;;;0.00;0.00;;;15.50;66.90;;;;;;5047113;28;20032;-77
2022/06/30 04:02:27;;;;;;;0.00;0.00;;;15.50;67.00;;;;;;5047201;28;20035;-79
2022/06/30 04:04:53;;;;;;;0.00;0.00;;;15.50;66.90;;;;;;5048288;28;20036;-78
2022/06/30 04:07:19;;;;;;;0.00;0.00;;;15.40;66.90;;;;;;5047200;28;20388;-78
2022/06/30 04:09:45;;;;;;;0.00;0.00;;;15.50;66.90;;;;;;5048145;28;20040;-77
2022/06/30 04:12:11;;;;;;;0.00;0.00;;;15.50;66.80;;;;;;5030166;28;20033;-78
2022/06/30 04:14:36;;;;;;;;;;;15.50;66.80;;;;;;5047591;28;20027;-78
2022/06/30 04:17:02;;;;;;;0.00;0.00;;;15.50;66.70;;;;;;5030256;28;20003;-77
2022/06/30 04:19:30;;;;;;;0.00;0.00;;;15.50;66.60;;;;;;5030271;28;20063;-78
2022/06/30 04:21:56;;;;;;;0.00;0.00;;;15.50;66.60;;;;;;5046607;28;20124;-77
2022/06/30 04:24:21;;;;;;;0.00;0.00;;;15.60;66.60;;;;;;5030317;28;20112;-77
2022/06/30 04:26:47;;;;;;;0.00;0.00;;;15.60;66.60;;;;;;5046942;28;20036;-78
2022/06/30 04:29:13;;;;;;;0.00;0.00;;;15.60;66.50;;;;;;5047897;28;20486;-78
2022/06/30 04:34:23;;;;;;;0.00;0.00;;;15.60;66.50;;;;;;5047940;28;20084;-77
2022/06/30 04:36:48;;;;;;;0.00;0.00;;;15.60;66.60;;;;;;5029982;28;20036;-78
2022/06/30 04:39:14;;;;;;;0.00;0.00;;;15.60;66.60;;;;;;5046687;28;20475;-77
2022/06/30 04:41:40;;;;;;;0.00;0.00;;;15.60;66.50;;;;;;5046677;28;20064;-77
2022/06/30 04:44:06;;;;;;;0.00;0.00;;;15.60;66.50;;;;;;5029058;28;20498;-78
2022/06/30 04:46:32;;;;;;;0.00;0.00;;;15.60;66.60;;;;;;5048380;28;20068;-77
2022/06/30 04:48:57;;;;;;;0.00;0.00;;;15.60;66.60;;;;;;5046649;28;20075;-78
2022/06/30 04:51:24;;;;;;;0.00;0.00;;;15.60;66.50;;;;;;5046608;28;20056;-81
2022/06/30 04:53:51;;;;;;;0.00;0.00;;;15.60;66.50;;;;;;5030207;28;20033;-76
2022/06/30 04:56:17;;;;;;;0.00;0.00;;;15.60;66.50;;;;;;5047701;28;20021;-78
2022/06/30 04:58:44;;;;;;;0.00;0.00;;;15.60;66.60;;;;;;5046226;28;20017;-79
2022/06/30 05:01:10;;;;;;;0.00;0.00;;;15.60;66.50;;;;;;5046601;28;20175;-80
2022/06/30 05:03:35;;;;;;;;;;;15.60;66.50;;;;;;5046706;28;20482;-77
2022/06/30 05:06:03;;;;;;;0.00;0.00;;;15.60;66.60;;;;;;5029772;28;19913;-78
2022/06/30 05:08:28;;;;;;;0.00;0.00;;;15.50;66.60;;;;;;5046431;28;20086;-78
2022/06/30 05:10:54;;;;;;;0.00;0.00;;;15.50;66.50;;;;;;5046170;28;20032;-77
2022/06/30 05:13:20;;;;;;;0.00;0.00;;;15.50;66.50;;;;;;5046343;28;20407;-77
2022/06/30 05:15:46;;;;;;;0.00;0.00;;;15.50;66.50;;;;;;5048920;28;20451;-79
2022/06/30 05:18:13;;;;;;;0.10;0.10;;;15.50;66.60;;;;;;5030898;28;20437;-78
2022/06/30 05:20:39;;;;;;;0.00;0.00;;;15.50;66.60;;;;;;5030767;28;20070;-79
2022/06/30 05:23:05;;;;;;;;;;;15.50;66.60;;;;;;5046608;28;20033;-78
2022/06/30 05:28:16;;;;;;;0.00;0.00;;;15.60;66.60;;;;;;5048062;28;20032;-79
2022/06/30 05:30:41;;;;;;;0.00;0.00;;;15.60;66.60;;;;;;5046979;28;20408;-78
2022/06/30 05:33:08;;;;;;;0.00;0.00;;;15.60;66.60;;;;;;5028911;28;20028;-76
2022/06/30 05:35:34;;;;;;;0.00;0.00;;;15.60;66.60;;;;;;5046848;28;20056;-79
2022/06/30 05:38:00;;;;;;;0.00;0.00;;;15.60;66.60;;;;;;5045543;28;20039;-79
2022/06/30 05:40:27;;;;;;;0.00;0.00;;;15.60;66.60;;;;;;5045795;28;20029;-78
2022/06/30 05:42:53;;;;;;;0.00;0.00;;;15.60;66.60;;;;;;5045855;28;20437;-77
2022/06/30 05:45:19;;;;;;;0.00;0.00;;;15.60;66.70;;;;;;5045314;28;20034;-77
2022/06/30 05:47:50;;;;;;;0.00;0.00;;;15.60;66.70;;;;;;5047210;28;20029;-78
2022/06/30 05:50:17;;;;;;;0.00;0.00;;;15.60;66.70;;;;;;5045426;28;20025;-78
2022/06/30 05:52:43;;;;;;;0.00;0.00;;;15.60;66.70;;;;;;5045786;28;20025;-77
2022/06/30 05:55:09;;;;;;;0.00;0.00;;;15.60;66.60;;;;;;5045534;28;20021;-79
2022/06/30 05:57:56;;;;;;;0.00;0.00;;;15.60;66.60;;;;;;5050403;28;20106;-78
2022/06/30 06:00:24;;;;;;;0.00;0.00;;;15.50;66.60;;;;;;5050684;28;20096;-79
2022/06/30 06:02:50;;;;;;;0.00;0.00;;;15.50;66.60;;;;;;5050441;28;20113;-78
2022/06/30 06:05:16;;;;;;;0.00;0.00;;;15.50;66.70;;;;;;5050366;28;20043;-80
2022/06/30 06:07:42;;;;;;;0.00;0.00;;;15.50;66.70;;;;;;5050407;28;20044;-79
2022/06/30 06:10:09;;;;;;;0.00;0.00;;;15.50;66.70;;;;;;5048959;28;20029;-79
2022/06/30 06:12:36;;;;;;;0.00;0.00;;;15.50;66.80;;;;;;5049496;28;20466;-78
2022/06/30 06:15:02;;;;;;;0.00;0.00;;;15.50;66.80;;;;;;5048957;28;20079;-77
2022/06/30 06:17:29;;;;;;;;;;;15.50;66.70;;;;;;5050624;28;20475;-78
2022/06/30 06:19:55;;;;;;;0.00;0.00;;;15.50;66.70;;;;;;5065749;28;19909;-78
2022/06/30 06:22:20;;;;;;;0.00;0.00;;;15.50;66.70;;;;;;5032915;28;20391;-77
2022/06/30 06:24:46;;;;;;;0.00;0.00;;;15.60;66.80;;;;;;5048871;28;20033;-76
2022/06/30 06:27:12;;;;;;;0.00;0.00;;;15.60;66.70;;;;;;5049064;28;20037;-78
2022/06/30 06:29:37;;;;;;;0.00;0.00;;;15.60;66.70;;;;;;5048420;28;20044;-81
2022/06/30 06:32:03;;;;;;;0.00;0.00;;;15.60;66.70;;;;;;5048419;28;20029;-79
2022/06/30 06:34:29;;;;;;;0.05;0.05;;;15.60;66.80;;;;;;5031502;28;20376;-79
2022/06/30 06:36:55;;;;;;;0.00;0.00;;;15.60;66.80;;;;;;5049708;28;20036;-78
2022/06/30 06:39:20;;;;;;;0.00;0.00;;;15.70;66.90;;;;;;5048289;28;20645;-76
2022/06/30 06:41:46;;;;;;;0.00;0.00;;;15.70;66.90;;;;;;5048649;28;20035;-76
2022/06/30 06:44:12;;;;;;;0.00;0.00;;;15.80;66.90;;;;;;5031747;28;20602;-77
2022/06/30 06:46:44;;;;;;;0.00;0.00;;;15.90;66.80;;;;;;5031815;28;20120;-78
2022/06/30 06:49:09;;;;;;;0.00;0.00;;;16.00;66.80;;;;;;5015828;28;20498;-78
2022/06/30 06:51:35;;;;;;;0.00;0.00;;;16.10;66.90;;;;;;5031439;28;20037;-77
2022/06/30 06:54:01;;;;;;;0.00;0.00;;;16.10;66.80;;;;;;5047851;28;20499;-78
2022/06/30 06:56:27;;;;;;;0.00;0.00;;;16.20;66.80;;;;;;5031397;28;20515;-77
2022/06/30 06:58:53;;;;;;;0.00;0.00;;;16.30;66.70;;;;;;5047414;28;20049;-77
2022/06/30 07:01:19;;;;;;;0.00;0.00;;;16.30;66.70;;;;;;5031268;28;20104;-76
2022/06/30 07:03:45;;;;;;;0.15;0.15;;;16.40;66.80;;;;;;5048967;28;20127;-78
2022/06/30 07:06:11;;;;;;;0.00;0.00;;;16.50;66.80;;;;;;5047683;28;20029;-77
2022/06/30 07:08:36;;;;;;;0.00;0.00;;;16.60;66.80;;;;;;5029908;28;20029;-78
2022/06/30 07:11:03;;;;;;;0.00;0.00;;;16.80;66.90;;;;;;5031034;28;20112;-78
2022/06/30 07:13:30;;;;;;;0.00;0.00;;;16.90;66.80;;;;;;5047383;28;20033;-77
2022/06/30 07:15:56;;;;;;;0.00;0.00;;;17.10;66.80;;;;;;5047621;28;20038;-76
2022/06/30 07:18:22;;;;;;;0.00;0.00;;;17.40;66.60;;;;;;5047626;28;20029;-78
2022/06/30 07:20:48;;;;;;;0.00;0.00;;;17.60;66.50;;;;;;5047511;28;20029;-78
2022/06/30 07:23:14;;;;;;;0.00;0.00;;;17.90;66.50;;;;;;5030641;28;20029;-77
2022/06/30 07:25:40;;;;;;;0.00;0.00;;;18.20;66.20;;;;;;5047401;28;20039;-79
2022/06/30 07:28:06;;;;;;;0.00;0.00;;;18.40;66.10;;;;;;5048407;28;20035;-78
2022/06/30 07:30:32;;;;;;;0.00;0.00;;;18.50;66.10;;;;;;5048783;28;20037;-78
2022/06/30 07:32:57;;;;;;;0.00;0.00;;;18.70;66.10;;;;;;5048677;28;20038;-78
2022/06/30 07:35:23;;;;;;;0.00;0.00;;;18.70;66.00;;;;;;5030823;28;20080;-77
2022/06/30 07:37:49;;;;;;;0.00;0.00;;;18.70;66.20;;;;;;5014641;28;20342;-77
2022/06/30 07:40:15;;;;;;;0.00;0.00;;;18.80;66.40;;;;;;5013528;28;20025;-77
2022/06/30 07:42:41;;;;;;;0.00;0.00;;;18.80;66.50;;;;;;5013837;28;20488;-77
2022/06/30 07:45:08;;;;;;;0.00;0.00;;;18.80;66.50;;;;;;5030315;28;20040;-78
2022/06/30 07:47:34;;;;;;;0.00;0.00;;;18.90;66.50;;;;;;5047886;28;20025;-79
2022/06/30 07:50:00;;;;;;;0.00;0.00;;;18.90;66.60;;;;;;5046437;28;20120;-77
2022/06/30 07:52:26;;;;;;;0.00;0.00;;;18.90;66.60;;;;;;5046375;28;20033;-76
2022/06/30 07:54:52;;;;;;;;;;;18.90;66.60;;;;;;5048677;28;20053;-78
2022/06/30 07:57:19;;;;;;;0.00;0.00;;;19.00;66.70;;;;;;5031256;28;19913;-77
2022/06/30 07:59:44;;;;;;;0.00;0.00;;;19.00;66.70;;;;;;5045664;28;20029;-78
2022/06/30 08:02:11;;;;;;;0.00;0.00;;;19.00;66.80;;;;;;5045501;28;20029;-78
2022/06/30 08:04:37;;;;;;;0.00;0.00;;;19.00;66.80;;;;;;5045890;28;20032;-78
2022/06/30 08:07:03;;;;;;;0.00;0.00;;;19.00;66.80;;;;;;5029586;28;20036;-77
2022/06/30 08:09:30;;;;;;;0.00;0.00;;;19.00;66.90;;;;;;5013061;28;20498;-77
2022/06/30 08:11:56;;;;;;;0.00;0.00;;;18.90;66.80;;;;;;5029877;28;20531;-79
2022/06/30 08:14:23;;;;;;;0.00;0.00;;;18.90;66.70;;;;;;5047149;28;20108;-76
2022/06/30 08:16:49;;;;;;;0.00;0.00;;;18.90;66.80;;;;;;5047559;28;20031;-78
2022/06/30 08:19:16;;;;;;;0.00;0.00;;;18.90;67.00;;;;;;5045798;28;20489;-78
2022/06/30 08:21:42;;;;;;;0.00;0.00;;;18.90;67.00;;;;;;5046489;28;20619;-78
2022/06/30 08:24:08;;;;;;;0.00;0.00;;;19.00;67.20;;;;;;5046105;28;20033;-80
2022/06/30 08:26:34;;;;;;;0.00;0.00;;;18.90;66.90;;;;;;5046024;28;20515;-79
2022/06/30 08:28:59;;;;;;;0.20;0.10;;;19.00;66.90;;;;;;5045957;28;20437;-78
2022/06/30 08:31:27;;;;;;;0.00;0.00;;;19.00;67.40;;;;;;5047678;28;20040;-78
2022/06/30 08:33:54;;;;;;;0.00;0.00;;;19.00;66.90;;;;;;5030030;28;20098;-79
2022/06/30 08:36:20;;;;;;;0.00;0.00;;;19.00;67.10;;;;;;5046561;28;20167;-77
2022/06/30 08:38:46;;;;;;;0.00;0.00;;;19.10;67.20;;;;;;5044261;28;20108;-77
2022/06/30 08:43:58;;;;;;;0.00;0.00;;;19.40;67.30;;;;;;5045984;28;19995;-76
2022/06/30 08:46:26;;;;;;;0.00;0.00;;;19.60;67.40;;;;;;5012240;28;20029;-76
2022/06/30 08:48:53;;;;;;;0.00;0.00;;;19.80;67.50;;;;;;5042414;28;20078;-76
2022/06/30 08:51:20;;;;;;;0.00;0.00;;;20.00;67.30;;;;;;5046560;28;20104;-78
2022/06/30 08:53:52;;;;;;;0.00;0.00;;;20.10;67.50;;;;;;5042685;28;20082;-78
2022/06/30 08:56:20;;;;;;;0.00;0.00;;;20.40;67.60;;;;;;5046734;28;20013;-79
2022/06/30 08:58:47;;;;;;;0.00;0.00;;;20.70;67.30;;;;;;5042511;28;20020;-78
2022/06/30 09:01:13;;;;;;;0.00;0.00;;;20.90;66.90;;;;;;5028183;28;20029;-77
2022/06/30 09:03:39;;;;;;;0.00;0.00;;;21.20;66.90;;;;;;5046293;28;20032;-75
2022/06/30 09:06:05;;;;;;;;;;;21.40;66.70;;;;;;5046780;28;20037;-76
2022/06/30 09:08:32;;;;;;;0.00;0.00;;;21.60;66.80;;;;;;5048263;28;19913;-81
2022/06/30 09:10:57;;;;;;;0.00;0.00;;;21.90;66.90;;;;;;5048965;28;20048;-81
2022/06/30 09:13:23;;;;;;;;;;;22.20;66.70;;;;;;5031305;28;20471;-79
2022/06/30 09:15:50;;;;;;;0.00;0.00;;;22.30;66.30;;;;;;5048781;28;19904;-79
2022/06/30 09:18:27;;;;;;;0.00;0.00;;;22.40;66.00;;;;;;5047961;28;20036;-78
2022/06/30 09:20:54;;;;;;;0.00;0.00;;;22.30;65.80;;;;;;5043105;28;20052;-79
2022/06/30 09:23:22;;;;;;;0.00;0.00;;;22.00;65.70;;;;;;5047638;28;20092;-80
2022/06/30 09:25:50;;;;;;;0.00;0.00;;;21.80;65.80;;;;;;5045393;28;20039;-79
2022/06/30 09:28:36;;;;;;;0.00;0.00;;;21.70;66.20;;;;;;5048043;28;20036;-80
2022/06/30 09:31:02;;;;;;;0.35;0.00;;;21.50;66.60;;;;;;5042181;28;20039;-80
2022/06/30 09:33:39;;;;;;;;;;;21.30;67.10;;;;;;5037415;28;20440;-79
2022/06/30 09:36:25;;;;;;;0.00;0.00;;;21.40;68.00;;;;;;5052807;28;19943;-78
2022/06/30 09:39:08;;;;;;;0.00;0.00;;;21.90;67.40;;;;;;5051260;28;20541;-79
2022/06/30 09:41:41;;;;;;;0.00;0.00;;;22.00;67.00;;;;;;5052768;28;20490;-78
2022/06/30 09:44:17;;;;;;;0.00;0.00;;;22.10;66.80;;;;;;5035513;28;20064;-79
2022/06/30 09:46:59;;;;;;;0.00;0.00;;;22.10;66.90;;;;;;5052919;28;20096;-79
2022/06/30 09:49:32;;;;;;;0.30;0.10;;;22.10;66.70;;;;;;5046382;28;20029;-78
2022/06/30 09:51:59;;;;;;;0.00;0.00;;;22.20;66.80;;;;;;5050714;28;20103;-79
2022/06/30 09:54:26;;;;;;;0.00;0.00;;;22.30;66.70;;;;;;5052507;28;20487;-81
2022/06/30 09:57:02;;;;;;;0.00;0.00;;;22.30;66.50;;;;;;5051370;28;20379;-80
2022/06/30 09:59:28;;;;;;;0.00;0.00;;;22.20;66.60;;;;;;5052148;28;20099;-81
2022/06/30 10:01:54;;;;;;;;;;;22.20;66.80;;;;;;5035040;28;20483;-82
2022/06/30 10:04:20;;;;;;;0.00;0.00;;;22.60;67.60;;;;;;5050464;28;19909;-81
2022/06/30 10:06:46;;;;;;;0.00;0.00;;;23.40;67.80;;;;;;5050601;28;20134;-81
2022/06/30 10:09:18;;;;;;;0.00;0.00;;;24.50;68.00;;;;;;5052384;28;20065;-83
2022/06/30 10:11:47;;;;;;;0.00;0.00;;;25.90;68.20;;;;;;5051239;28;20071;-80
2022/06/30 10:14:15;;;;;;;0.00;0.00;;;27.50;68.70;;;;;;5052508;28;20024;-80
2022/06/30 10:16:42;;;;;;;0.00;0.00;;;29.00;68.60;;;;;;5051867;28;20119;-80
2022/06/30 10:19:12;;;;;;;0.00;0.00;;;30.20;68.40;;;;;;5051904;28;20047;-78
2022/06/30 10:21:39;;;;;;;0.00;0.00;;;30.30;67.20;;;;;;5052105;28;20092;-82
2022/06/30 10:24:08;;;;;;;0.00;0.00;;;29.60;66.30;;;;;;5050129;28;20091;-82
2022/06/30 10:29:19;;;;;;;0.00;0.00;;;28.00;65.90;;;;;;5039765;28;20107;-81
2022/06/30 10:32:04;;;;;;;0.00;0.00;;;27.20;66.30;;;;;;5050964;28;20025;-78
2022/06/30 10:34:38;;;;;;;0.00;0.00;;;26.40;66.40;;;;;;5047700;28;20103;-76
2022/06/30 10:37:17;;;;;;;0.00;0.00;;;25.80;66.40;;;;;;5052056;28;20029;-81
2022/06/30 10:39:57;;;;;;;0.05;0.05;;;25.20;66.40;;;;;;5050777;28;20099;-79
2022/06/30 10:42:43;;;;;;;0.00;0.00;;;24.80;66.80;;;;;;5049209;28;20017;-80
2022/06/30 10:45:27;;;;;;;0.00;0.00;;;24.60;67.00;;;;;;5050613;28;20029;-82
2022/06/30 10:48:05;;;;;;;0.00;0.00;;;24.60;67.40;;;;;;5050623;28;20021;-78
2022/06/30 10:50:39;;;;;;;0.00;0.00;;;24.70;67.60;;;;;;5050119;28;20035;-77
2022/06/30 10:53:07;;;;;;;0.00;0.00;;;24.90;67.50;;;;;;5033706;28;20375;-77
2022/06/30 10:55:48;;;;;;;0.00;0.00;;;24.80;66.90;;;;;;5048993;28;20463;-77
2022/06/30 10:58:15;;;;;;;0.00;0.00;;;24.70;66.70;;;;;;5048062;28;20025;-76
2022/06/30 11:00:42;;;;;;;0.00;0.00;;;24.60;67.20;;;;;;5049859;28;20029;-77
2022/06/30 11:03:07;;;;;;;0.00;0.00;;;25.30;68.20;;;;;;5050465;28;20021;-80
2022/06/30 11:05:33;;;;;;;0.00;0.00;;;26.50;68.90;;;;;;5049691;28;20116;-75
2022/06/30 11:08:36;;;;;;;0.00;0.00;;;28.00;68.90;;;;;;5050269;28;20406;-79
2022/06/30 11:11:22;;;;;;;0.00;0.00;;;29.40;68.40;;;;;;5039965;28;20448;-79
2022/06/30 11:13:49;;;;;;;0.00;0.00;;;30.50;67.20;;;;;;5037265;28;20056;-76
2022/06/30 11:16:19;;;;;;;0.00;0.00;;;30.60;66.80;;;;;;5049816;28;20023;-77
2022/06/30 11:18:46;;;;;;;0.00;0.00;;;30.50;66.70;;;;;;5048079;28;20491;-77
2022/06/30 11:21:12;;;;;;;0.00;0.00;;;30.00;66.00;;;;;;5048632;28;20056;-77
2022/06/30 11:23:50;;;;;;;0.00;0.00;;;29.20;65.60;;;;;;5048734;28;20048;-77
2022/06/30 11:29:18;;;;;;;0.00;0.00;;;27.20;65.80;;;;;;5002342;28;20407;-79
2022/06/30 11:31:48;;;;;;;0.00;0.00;;;26.30;66.40;;;;;;5042491;28;20029;-79
2022/06/30 11:34:17;;;;;;;0.00;0.00;;;25.60;66.20;;;;;;5043096;28;20021;-78
2022/06/30 11:36:44;;;;;;;0.00;0.00;;;24.90;66.40;;;;;;5050551;28;20025;-80
2022/06/30 11:39:19;;;;;;;0.00;0.00;;;24.20;66.40;;;;;;5048813;28;20021;-78
2022/06/30 11:41:57;;;;;;;0.03;0.03;;;23.50;66.60;;;;;;5049259;28;20029;-78
2022/06/30 11:44:44;;;;;;;0.00;0.00;;;22.90;66.80;;;;;;5050207;28;20021;-79
2022/06/30 11:47:12;;;;;;;;;;;22.30;67.00;;;;;;5046595;28;20039;-78
2022/06/30 11:49:45;;;;;;;0.00;0.00;;;21.80;67.20;;;;;;5065080;28;19940;-76
2022/06/30 11:52:22;;;;;;;0.00;0.00;;;21.50;67.30;;;;;;5049557;28;20423;-80
2022/06/30 11:54:56;;;;;;;0.00;0.00;;;21.20;67.40;;;;;;5049822;28;20025;-77
2022/06/30 11:57:24;;;;;;;0.00;0.00;;;20.90;67.50;;;;;;5048848;28;20430;-80
2022/06/30 11:59:53;;;;;;;0.00;0.00;;;20.70;67.50;;;;;;5049830;28;20021;-79
2022/06/30 12:02:19;;;;;;;0.00;0.00;;;20.60;67.50;;;;;;5047870;28;20037;-76
2022/06/30 12:04:51;;;;;;;0.00;0.00;;;20.50;67.40;;;;;;5050668;28;20520;-79
2022/06/30 12:07:18;;;;;;;0.00;0.00;;;20.40;67.50;;;;;;5050946;28;20016;-80
2022/06/30 12:09:45;;;;;;;0.00;0.00;;;20.40;67.50;;;;;;5049499;28;20486;-80
2022/06/30 12:12:18;;;;;;;0.00;0.00;;;20.40;67.40;;;;;;5048131;28;20032;-78
2022/06/30 12:14:46;;;;;;;0.00;0.00;;;20.50;67.30;;;;;;5049410;28;20036;-78
2022/06/30 12:17:15;;;;;;;0.00;0.00;;;20.50;67.30;;;;;;5047421;28;20056;-76
2022/06/30 12:19:41;;;;;;;0.00;0.00;;;20.60;67.30;;;;;;5047821;28;20017;-80
2022/06/30 12:22:08;;;;;;;;;;;20.80;67.30;;;;;;5031984;28;20103;-81
2022/06/30 12:24:35;;;;;;;0.00;0.00;;;21.10;67.30;;;;;;5031494;28;19967;-79
2022/06/30 12:27:00;;;;;;;0.00;0.00;;;21.30;67.10;;;;;;5047731;28;20073;-77
2022/06/30 12:29:27;;;;;;;;;;;21.50;67.10;;;;;;5049046;28;20106;-77
2022/06/30 12:32:10;;;;;;;0.00;0.00;;;21.80;67.20;;;;;;5049332;28;20370;-78
2022/06/30 12:34:56;;;;;;;0.00;0.00;;;22.10;67.10;;;;;;5047890;28;20040;-80
2022/06/30 12:37:42;;;;;;;0.00;0.00;;;22.50;67.00;;;;;;5049171;28;20418;-75
2022/06/30 12:40:15;;;;;;;0.00;0.00;;;23.00;66.90;;;;;;5050021;28;20538;-79
2022/06/30 12:42:44;;;;;;;0.00;0.00;;;23.30;66.60;;;;;;5047637;28;20475;-79
2022/06/30 12:45:45;;;;;;;0.00;0.00;;;23.50;66.40;;;;;;5048166;28;20029;-77
2022/06/30 12:48:13;;;;;;;0.00;0.00;;;23.90;66.80;;;;;;5048689;28;20017;-80
2022/06/30 12:50:42;;;;;;;0.00;0.00;;;24.60;67.10;;;;;;5048211;28;20021;-81
2022/06/30 12:53:25;;;;;;;0.03;0.03;;;25.30;67.30;;;;;;5047834;28;20120;-79
2022/06/30 12:56:00;;;;;;;0.00;0.00;;;26.50;67.70;;;;;;5048433;28;20037;-75
2022/06/30 12:58:26;;;;;;;0.00;0.00;;;27.20;67.10;;;;;;5048227;28;20100;-81
2022/06/30 13:00:59;;;;;;;0.00;0.00;;;27.30;66.40;;;;;;5047693;28;20109;-78
2022/06/30 13:03:25;;;;;;;0.00;0.00;;;27.10;66.00;;;;;;5046782;28;20021;-79
2022/06/30 13:05:51;;;;;;;0.00;0.00;;;26.80;65.80;;;;;;5047919;28;20652;-80
2022/06/30 13:08:17;;;;;;;0.00;0.00;;;26.50;65.70;;;;;;5047755;28;20112;-78
2022/06/30 13:13:27;;;;;;;0.00;0.00;;;25.80;66.70;;;;;;5049000;28;20407;-79
2022/06/30 13:15:52;;;;;;;0.00;0.00;;;25.70;66.70;;;;;;5048206;28;20033;-80
2022/06/30 13:18:18;;;;;;;0.00;0.00;;;25.50;66.30;;;;;;5048492;28;20025;-79